sensor_id;sensor_type;location;lat;lon;timestamp;P1;durP1;ratioP1;P2;durP2;ratioP2
19727;SDS011;10015;52.530;13.390;2023-09-19T00:00:45;6.77;;;1.80;;
19727;SDS011;10015;52.530;13.390;2023-09-19T00:03:16;4.13;;;1.50;;
19727;SDS011;10015;52.530;13.390;2023-09-19T00:05:42;6.57;;;1.93;;
19727;SDS011;10015;52.530;13.390;2023-09-19T00:08:12;2.90;;;1.70;;
19727;SDS011;10015;52.530;13.390;2023-09-19T00:10:42;6.93;;;1.90;;
19727;SDS011;10015;52.530;13.390;2023-09-19T00:13:09;4.23;;;1.67;;
19727;SDS011;10015;52.530;13.390;2023-09-19T00:15:40;5.73;;;1.80;;
19727;SDS011;10015;52.530;13.390;2023-09-19T00:18:07;6.70;;;1.70;;
19727;SDS011;10015;52.530;13.390;2023-09-19T00:20:35;5.07;;;1.90;;
19727;SDS011;10015;52.530;13.390;2023-09-19T00:23:02;3.80;;;1.60;;
19727;SDS011;10015;52.530;13.390;2023-09-19T00:25:29;4.27;;;1.50;;
19727;SDS011;10015;52.530;13.390;2023-09-19T00:27:57;4.83;;;1.80;;
19727;SDS011;10015;52.530;13.390;2023-09-19T00:30:23;4.00;;;1.70;;
19727;SDS011;10015;52.530;13.390;2023-09-19T00:32:50;5.20;;;1.70;;
19727;SDS011;10015;52.530;13.390;2023-09-19T00:35:23;5.73;;;1.80;;
19727;SDS011;10015;52.530;13.390;2023-09-19T00:37:53;2.83;;;1.77;;
19727;SDS011;10015;52.530;13.390;2023-09-19T00:40:19;4.20;;;1.53;;
19727;SDS011;10015;52.530;13.390;2023-09-19T00:42:46;4.90;;;1.50;;
19727;SDS011;10015;52.530;13.390;2023-09-19T00:45:14;2.80;;;1.60;;
19727;SDS011;10015;52.530;13.390;2023-09-19T00:47:45;3.03;;;1.53;;
19727;SDS011;10015;52.530;13.390;2023-09-19T00:50:20;5.10;;;2.00;;
19727;SDS011;10015;52.530;13.390;2023-09-19T00:52:48;3.13;;;1.77;;
19727;SDS011;10015;52.530;13.390;2023-09-19T00:55:17;3.47;;;2.07;;
19727;SDS011;10015;52.530;13.390;2023-09-19T00:57:46;4.00;;;1.70;;
19727;SDS011;10015;52.530;13.390;2023-09-19T01:00:15;4.73;;;1.53;;
19727;SDS011;10015;52.530;13.390;2023-09-19T01:02:44;2.50;;;1.60;;
19727;SDS011;10015;52.530;13.390;2023-09-19T01:05:12;2.57;;;1.43;;
19727;SDS011;10015;52.530;13.390;2023-09-19T01:07:39;2.93;;;1.70;;
19727;SDS011;10015;52.530;13.390;2023-09-19T01:10:06;4.93;;;1.70;;
19727;SDS011;10015;52.530;13.390;2023-09-19T01:21:05;3.77;;;1.60;;
19727;SDS011;10015;52.530;13.390;2023-09-19T01:29:47;3.97;;;1.40;;
19727;SDS011;10015;52.530;13.390;2023-09-19T01:32:21;3.87;;;1.70;;
19727;SDS011;10015;52.530;13.390;2023-09-19T01:37:20;3.17;;;1.50;;
19727;SDS011;10015;52.530;13.390;2023-09-19T01:45:33;2.67;;;1.63;;
19727;SDS011;10015;52.530;13.390;2023-09-19T01:48:29;4.53;;;1.50;;
19727;SDS011;10015;52.530;13.390;2023-09-19T01:51:08;4.53;;;1.80;;
19727;SDS011;10015;52.530;13.390;2023-09-19T01:56:42;3.43;;;1.43;;
19727;SDS011;10015;52.530;13.390;2023-09-19T01:59:16;3.03;;;1.53;;
19727;SDS011;10015;52.530;13.390;2023-09-19T02:01:48;4.07;;;1.53;;
19727;SDS011;10015;52.530;13.390;2023-09-19T02:04:16;2.77;;;1.60;;
19727;SDS011;10015;52.530;13.390;2023-09-19T02:06:42;4.20;;;1.57;;
19727;SDS011;10015;52.530;13.390;2023-09-19T02:09:08;3.40;;;1.67;;
19727;SDS011;10015;52.530;13.390;2023-09-19T02:11:34;3.70;;;1.50;;
19727;SDS011;10015;52.530;13.390;2023-09-19T02:14:01;2.57;;;1.50;;
19727;SDS011;10015;52.530;13.390;2023-09-19T02:16:29;1.93;;;1.43;;
19727;SDS011;10015;52.530;13.390;2023-09-19T02:18:55;2.10;;;1.13;;
19727;SDS011;10015;52.530;13.390;2023-09-19T02:21:22;3.93;;;1.40;;
19727;SDS011;10015;52.530;13.390;2023-09-19T02:23:48;2.33;;;1.50;;
19727;SDS011;10015;52.530;13.390;2023-09-19T02:26:14;3.20;;;1.67;;
19727;SDS011;10015;52.530;13.390;2023-09-19T02:28:41;2.30;;;1.30;;
19727;SDS011;10015;52.530;13.390;2023-09-19T02:31:08;2.57;;;1.70;;
19727;SDS011;10015;52.530;13.390;2023-09-19T02:33:34;2.97;;;1.80;;
19727;SDS011;10015;52.530;13.390;2023-09-19T02:36:01;2.77;;;1.30;;
19727;SDS011;10015;52.530;13.390;2023-09-19T02:38:30;2.23;;;1.40;;
19727;SDS011;10015;52.530;13.390;2023-09-19T02:40:56;2.23;;;1.40;;
19727;SDS011;10015;52.530;13.390;2023-09-19T02:43:22;3.20;;;1.60;;
19727;SDS011;10015;52.530;13.390;2023-09-19T02:45:49;2.07;;;1.50;;
19727;SDS011;10015;52.530;13.390;2023-09-19T02:48:19;3.30;;;1.70;;
19727;SDS011;10015;52.530;13.390;2023-09-19T02:50:51;4.07;;;1.33;;
19727;SDS011;10015;52.530;13.390;2023-09-19T02:53:17;2.77;;;1.47;;
19727;SDS011;10015;52.530;13.390;2023-09-19T02:55:44;4.67;;;1.60;;
19727;SDS011;10015;52.530;13.390;2023-09-19T02:58:10;2.07;;;1.50;;
19727;SDS011;10015;52.530;13.390;2023-09-19T03:00:37;3.47;;;1.70;;
19727;SDS011;10015;52.530;13.390;2023-09-19T03:03:04;3.10;;;1.40;;
19727;SDS011;10015;52.530;13.390;2023-09-19T03:05:32;4.27;;;1.43;;
19727;SDS011;10015;52.530;13.390;2023-09-19T03:07:58;2.53;;;1.40;;
19727;SDS011;10015;52.530;13.390;2023-09-19T03:10:29;2.53;;;1.50;;
19727;SDS011;10015;52.530;13.390;2023-09-19T03:12:57;3.33;;;1.40;;
19727;SDS011;10015;52.530;13.390;2023-09-19T03:15:25;3.37;;;1.57;;
19727;SDS011;10015;52.530;13.390;2023-09-19T03:17:52;1.47;;;1.00;;
19727;SDS011;10015;52.530;13.390;2023-09-19T03:20:21;3.27;;;1.67;;
19727;SDS011;10015;52.530;13.390;2023-09-19T03:22:48;4.73;;;1.30;;
19727;SDS011;10015;52.530;13.390;2023-09-19T03:25:15;2.17;;;1.20;;
19727;SDS011;10015;52.530;13.390;2023-09-19T03:27:46;2.17;;;1.40;;
19727;SDS011;10015;52.530;13.390;2023-09-19T03:30:14;2.37;;;1.13;;
19727;SDS011;10015;52.530;13.390;2023-09-19T03:32:45;1.60;;;1.30;;
19727;SDS011;10015;52.530;13.390;2023-09-19T03:35:12;1.37;;;1.00;;
19727;SDS011;10015;52.530;13.390;2023-09-19T03:37:41;1.67;;;1.30;;
19727;SDS011;10015;52.530;13.390;2023-09-19T03:40:10;2.83;;;1.10;;
19727;SDS011;10015;52.530;13.390;2023-09-19T03:42:40;2.83;;;1.43;;
19727;SDS011;10015;52.530;13.390;2023-09-19T03:45:09;2.73;;;1.30;;
19727;SDS011;10015;52.530;13.390;2023-09-19T03:47:40;2.60;;;1.23;;
19727;SDS011;10015;52.530;13.390;2023-09-19T03:50:08;2.60;;;1.10;;
19727;SDS011;10015;52.530;13.390;2023-09-19T03:52:36;1.57;;;0.80;;
19727;SDS011;10015;52.530;13.390;2023-09-19T03:55:03;2.97;;;1.10;;
19727;SDS011;10015;52.530;13.390;2023-09-19T03:57:30;3.20;;;1.13;;
19727;SDS011;10015;52.530;13.390;2023-09-19T03:59:56;2.43;;;1.10;;
19727;SDS011;10015;52.530;13.390;2023-09-19T04:02:22;1.90;;;0.97;;
19727;SDS011;10015;52.530;13.390;2023-09-19T04:04:51;2.00;;;1.30;;
19727;SDS011;10015;52.530;13.390;2023-09-19T04:07:17;5.87;;;1.20;;
19727;SDS011;10015;52.530;13.390;2023-09-19T04:09:49;2.27;;;1.03;;
19727;SDS011;10015;52.530;13.390;2023-09-19T04:12:15;2.73;;;1.20;;
19727;SDS011;10015;52.530;13.390;2023-09-19T04:14:42;2.03;;;1.20;;
19727;SDS011;10015;52.530;13.390;2023-09-19T04:17:10;2.63;;;1.37;;
19727;SDS011;10015;52.530;13.390;2023-09-19T04:19:37;3.03;;;1.27;;
19727;SDS011;10015;52.530;13.390;2023-09-19T04:22:04;2.57;;;1.10;;
19727;SDS011;10015;52.530;13.390;2023-09-19T04:24:30;1.97;;;1.13;;
19727;SDS011;10015;52.530;13.390;2023-09-19T04:26:57;4.07;;;1.47;;
19727;SDS011;10015;52.530;13.390;2023-09-19T04:29:24;2.13;;;1.10;;
19727;SDS011;10015;52.530;13.390;2023-09-19T04:31:53;2.47;;;1.10;;
19727;SDS011;10015;52.530;13.390;2023-09-19T04:34:19;1.70;;;1.17;;
19727;SDS011;10015;52.530;13.390;2023-09-19T04:36:45;1.87;;;1.30;;
19727;SDS011;10015;52.530;13.390;2023-09-19T04:39:11;3.67;;;1.40;;
19727;SDS011;10015;52.530;13.390;2023-09-19T04:41:38;2.87;;;1.40;;
19727;SDS011;10015;52.530;13.390;2023-09-19T04:44:06;2.90;;;1.20;;
19727;SDS011;10015;52.530;13.390;2023-09-19T04:46:33;1.57;;;1.20;;
19727;SDS011;10015;52.530;13.390;2023-09-19T04:49:01;4.53;;;1.70;;
19727;SDS011;10015;52.530;13.390;2023-09-19T04:51:28;2.17;;;1.20;;
19727;SDS011;10015;52.530;13.390;2023-09-19T04:53:55;2.00;;;1.30;;
19727;SDS011;10015;52.530;13.390;2023-09-19T04:56:21;1.80;;;1.10;;
19727;SDS011;10015;52.530;13.390;2023-09-19T04:58:48;2.30;;;1.17;;
19727;SDS011;10015;52.530;13.390;2023-09-19T05:01:14;4.20;;;1.30;;
19727;SDS011;10015;52.530;13.390;2023-09-19T05:03:40;1.93;;;1.20;;
19727;SDS011;10015;52.530;13.390;2023-09-19T05:06:07;3.78;;;0.98;;
19727;SDS011;10015;52.530;13.390;2023-09-19T05:08:33;1.80;;;1.08;;
19727;SDS011;10015;52.530;13.390;2023-09-19T05:11:01;1.77;;;1.08;;
19727;SDS011;10015;52.530;13.390;2023-09-19T05:13:28;1.67;;;1.08;;
19727;SDS011;10015;52.530;13.390;2023-09-19T05:15:54;2.40;;;1.10;;
19727;SDS011;10015;52.530;13.390;2023-09-19T05:18:20;5.47;;;1.27;;
19727;SDS011;10015;52.530;13.390;2023-09-19T05:20:47;4.05;;;1.33;;
19727;SDS011;10015;52.530;13.390;2023-09-19T05:23:15;5.25;;;1.20;;
19727;SDS011;10015;52.530;13.390;2023-09-19T05:25:41;4.03;;;1.20;;
19727;SDS011;10015;52.530;13.390;2023-09-19T05:28:09;1.92;;;1.20;;
19727;SDS011;10015;52.530;13.390;2023-09-19T05:30:40;8.20;;;1.30;;
19727;SDS011;10015;52.530;13.390;2023-09-19T05:33:08;4.50;;;1.30;;
19727;SDS011;10015;52.530;13.390;2023-09-19T05:35:35;3.58;;;1.33;;
19727;SDS011;10015;52.530;13.390;2023-09-19T05:38:05;4.18;;;1.33;;
19727;SDS011;10015;52.530;13.390;2023-09-19T05:40:34;2.88;;;1.17;;
19727;SDS011;10015;52.530;13.390;2023-09-19T05:43:01;4.25;;;1.15;;
19727;SDS011;10015;52.530;13.390;2023-09-19T05:45:31;4.25;;;1.63;;
19727;SDS011;10015;52.530;13.390;2023-09-19T05:48:06;1.75;;;1.15;;
19727;SDS011;10015;52.530;13.390;2023-09-19T05:50:38;3.47;;;1.35;;
19727;SDS011;10015;52.530;13.390;2023-09-19T05:53:05;1.73;;;1.17;;
19727;SDS011;10015;52.530;13.390;2023-09-19T05:55:33;3.05;;;1.55;;
19727;SDS011;10015;52.530;13.390;2023-09-19T05:57:59;2.55;;;1.25;;
19727;SDS011;10015;52.530;13.390;2023-09-19T06:00:25;4.47;;;1.50;;
19727;SDS011;10015;52.530;13.390;2023-09-19T06:02:57;2.70;;;1.27;;
19727;SDS011;10015;52.530;13.390;2023-09-19T06:05:25;4.20;;;1.40;;
19727;SDS011;10015;52.530;13.390;2023-09-19T06:07:52;3.47;;;1.33;;
19727;SDS011;10015;52.530;13.390;2023-09-19T06:10:18;3.08;;;1.23;;
19727;SDS011;10015;52.530;13.390;2023-09-19T06:12:46;2.13;;;1.20;;
19727;SDS011;10015;52.530;13.390;2023-09-19T06:15:13;3.80;;;1.45;;
19727;SDS011;10015;52.530;13.390;2023-09-19T06:17:48;3.67;;;1.02;;
19727;SDS011;10015;52.530;13.390;2023-09-19T06:20:16;2.17;;;1.40;;
19727;SDS011;10015;52.530;13.390;2023-09-19T06:22:43;2.05;;;1.40;;
19727;SDS011;10015;52.530;13.390;2023-09-19T06:25:11;5.07;;;1.35;;
19727;SDS011;10015;52.530;13.390;2023-09-19T06:27:45;3.05;;;1.25;;
19727;SDS011;10015;52.530;13.390;2023-09-19T06:30:13;2.25;;;1.10;;
19727;SDS011;10015;52.530;13.390;2023-09-19T06:32:43;3.20;;;1.40;;
19727;SDS011;10015;52.530;13.390;2023-09-19T06:35:13;2.08;;;1.50;;
19727;SDS011;10015;52.530;13.390;2023-09-19T06:37:42;3.85;;;1.60;;
19727;SDS011;10015;52.530;13.390;2023-09-19T06:40:09;2.83;;;1.20;;
19727;SDS011;10015;52.530;13.390;2023-09-19T06:42:45;2.08;;;1.20;;
19727;SDS011;10015;52.530;13.390;2023-09-19T06:45:14;3.25;;;1.60;;
19727;SDS011;10015;52.530;13.390;2023-09-19T06:47:48;3.70;;;1.30;;
19727;SDS011;10015;52.530;13.390;2023-09-19T06:50:20;4.43;;;1.58;;
19727;SDS011;10015;52.530;13.390;2023-09-19T06:52:51;2.97;;;1.40;;
19727;SDS011;10015;52.530;13.390;2023-09-19T06:55:21;2.88;;;1.40;;
19727;SDS011;10015;52.530;13.390;2023-09-19T06:57:50;2.20;;;1.40;;
19727;SDS011;10015;52.530;13.390;2023-09-19T07:00:16;3.97;;;1.52;;
19727;SDS011;10015;52.530;13.390;2023-09-19T07:02:55;2.92;;;1.35;;
19727;SDS011;10015;52.530;13.390;2023-09-19T07:05:37;4.07;;;1.70;;
19727;SDS011;10015;52.530;13.390;2023-09-19T07:08:06;3.65;;;1.60;;
19727;SDS011;10015;52.530;13.390;2023-09-19T07:10:35;4.38;;;1.60;;
19727;SDS011;10015;52.530;13.390;2023-09-19T07:13:05;3.38;;;1.33;;
19727;SDS011;10015;52.530;13.390;2023-09-19T07:15:38;5.18;;;1.67;;
19727;SDS011;10015;52.530;13.390;2023-09-19T07:18:05;2.03;;;1.60;;
19727;SDS011;10015;52.530;13.390;2023-09-19T07:20:36;3.83;;;1.60;;
19727;SDS011;10015;52.530;13.390;2023-09-19T07:23:03;3.80;;;1.65;;
19727;SDS011;10015;52.530;13.390;2023-09-19T07:25:30;4.90;;;1.35;;
19727;SDS011;10015;52.530;13.390;2023-09-19T07:27:59;3.80;;;1.30;;
19727;SDS011;10015;52.530;13.390;2023-09-19T07:30:26;2.72;;;1.70;;
19727;SDS011;10015;52.530;13.390;2023-09-19T07:32:54;2.10;;;1.30;;
19727;SDS011;10015;52.530;13.390;2023-09-19T07:35:23;3.80;;;1.58;;
19727;SDS011;10015;52.530;13.390;2023-09-19T07:37:51;4.28;;;2.10;;
19727;SDS011;10015;52.530;13.390;2023-09-19T07:40:18;3.70;;;1.60;;
19727;SDS011;10015;52.530;13.390;2023-09-19T07:42:46;3.65;;;1.77;;
19727;SDS011;10015;52.530;13.390;2023-09-19T07:45:12;6.88;;;1.70;;
19727;SDS011;10015;52.530;13.390;2023-09-19T07:47:50;5.18;;;1.83;;
19727;SDS011;10015;52.530;13.390;2023-09-19T07:50:17;5.15;;;1.80;;
19727;SDS011;10015;52.530;13.390;2023-09-19T07:52:50;3.40;;;2.30;;
19727;SDS011;10015;52.530;13.390;2023-09-19T07:55:19;5.38;;;1.80;;
19727;SDS011;10015;52.530;13.390;2023-09-19T07:57:50;4.40;;;2.00;;
19727;SDS011;10015;52.530;13.390;2023-09-19T08:00:17;5.40;;;1.80;;
19727;SDS011;10015;52.530;13.390;2023-09-19T08:02:44;5.65;;;2.30;;
19727;SDS011;10015;52.530;13.390;2023-09-19T08:05:11;4.57;;;1.80;;
19727;SDS011;10015;52.530;13.390;2023-09-19T08:07:41;4.05;;;2.05;;
19727;SDS011;10015;52.530;13.390;2023-09-19T08:10:09;3.88;;;2.10;;
19727;SDS011;10015;52.530;13.390;2023-09-19T08:12:44;3.92;;;1.83;;
19727;SDS011;10015;52.530;13.390;2023-09-19T08:15:19;4.30;;;1.85;;
19727;SDS011;10015;52.530;13.390;2023-09-19T08:17:47;3.92;;;1.80;;
19727;SDS011;10015;52.530;13.390;2023-09-19T08:20:19;3.35;;;1.80;;
19727;SDS011;10015;52.530;13.390;2023-09-19T08:22:49;5.90;;;1.90;;
19727;SDS011;10015;52.530;13.390;2023-09-19T08:25:35;5.68;;;1.80;;
19727;SDS011;10015;52.530;13.390;2023-09-19T08:28:01;4.22;;;1.65;;
19727;SDS011;10015;52.530;13.390;2023-09-19T08:30:33;5.55;;;2.05;;
19727;SDS011;10015;52.530;13.390;2023-09-19T08:33:01;7.63;;;1.70;;
19727;SDS011;10015;52.530;13.390;2023-09-19T08:35:30;10.60;;;1.85;;
19727;SDS011;10015;52.530;13.390;2023-09-19T08:37:56;3.88;;;1.92;;
19727;SDS011;10015;52.530;13.390;2023-09-19T08:40:23;4.70;;;2.03;;
19727;SDS011;10015;52.530;13.390;2023-09-19T08:42:54;3.75;;;1.80;;
19727;SDS011;10015;52.530;13.390;2023-09-19T08:45:22;6.72;;;1.90;;
19727;SDS011;10015;52.530;13.390;2023-09-19T08:50:52;6.25;;;2.28;;
19727;SDS011;10015;52.530;13.390;2023-09-19T08:56:01;7.40;;;2.10;;
19727;SDS011;10015;52.530;13.390;2023-09-19T08:58:34;4.32;;;1.95;;
19727;SDS011;10015;52.530;13.390;2023-09-19T09:01:28;6.70;;;2.20;;
19727;SDS011;10015;52.530;13.390;2023-09-19T09:03:58;4.95;;;1.90;;
19727;SDS011;10015;52.530;13.390;2023-09-19T09:06:25;10.23;;;2.42;;
19727;SDS011;10015;52.530;13.390;2023-09-19T09:08:53;6.07;;;2.25;;
19727;SDS011;10015;52.530;13.390;2023-09-19T09:11:20;4.80;;;2.05;;
19727;SDS011;10015;52.530;13.390;2023-09-19T09:13:49;5.63;;;2.15;;
19727;SDS011;10015;52.530;13.390;2023-09-19T09:16:17;4.85;;;2.13;;
19727;SDS011;10015;52.530;13.390;2023-09-19T09:18:47;5.13;;;2.30;;
19727;SDS011;10015;52.530;13.390;2023-09-19T09:22:17;4.70;;;2.20;;
19727;SDS011;10015;52.530;13.390;2023-09-19T09:24:53;5.13;;;2.50;;
19727;SDS011;10015;52.530;13.390;2023-09-19T09:27:23;4.90;;;2.63;;
19727;SDS011;10015;52.530;13.390;2023-09-19T09:29:50;5.47;;;2.00;;
19727;SDS011;10015;52.530;13.390;2023-09-19T09:37:59;6.63;;;2.33;;
19727;SDS011;10015;52.530;13.390;2023-09-19T09:40:45;5.68;;;2.22;;
19727;SDS011;10015;52.530;13.390;2023-09-19T09:43:39;4.18;;;2.00;;
19727;SDS011;10015;52.530;13.390;2023-09-19T09:46:15;6.38;;;2.05;;
19727;SDS011;10015;52.530;13.390;2023-09-19T09:52:05;5.35;;;2.30;;
19727;SDS011;10015;52.530;13.390;2023-09-19T09:54:39;4.25;;;2.00;;
19727;SDS011;10015;52.530;13.390;2023-09-19T09:57:31;5.68;;;1.98;;
19727;SDS011;10015;52.530;13.390;2023-09-19T09:59:59;4.63;;;1.90;;
19727;SDS011;10015;52.530;13.390;2023-09-19T10:02:38;3.70;;;1.83;;
19727;SDS011;10015;52.530;13.390;2023-09-19T10:05:13;4.25;;;2.25;;
19727;SDS011;10015;52.530;13.390;2023-09-19T10:07:46;8.73;;;2.47;;
19727;SDS011;10015;52.530;13.390;2023-09-19T10:10:33;5.35;;;2.15;;
19727;SDS011;10015;52.530;13.390;2023-09-19T10:13:07;6.78;;;2.30;;
19727;SDS011;10015;52.530;13.390;2023-09-19T10:15:44;5.82;;;2.25;;
19727;SDS011;10015;52.530;13.390;2023-09-19T10:18:22;11.95;;;3.03;;
19727;SDS011;10015;52.530;13.390;2023-09-19T10:20:51;4.70;;;2.28;;
19727;SDS011;10015;52.530;13.390;2023-09-19T10:23:19;10.00;;;2.35;;
19727;SDS011;10015;52.530;13.390;2023-09-19T10:25:54;5.03;;;2.33;;
19727;SDS011;10015;52.530;13.390;2023-09-19T10:28:22;5.78;;;2.40;;
19727;SDS011;10015;52.530;13.390;2023-09-19T10:30:59;3.67;;;2.13;;
19727;SDS011;10015;52.530;13.390;2023-09-19T10:33:27;5.63;;;2.20;;
19727;SDS011;10015;52.530;13.390;2023-09-19T10:36:02;5.22;;;1.90;;
19727;SDS011;10015;52.530;13.390;2023-09-19T10:38:31;5.93;;;2.15;;
19727;SDS011;10015;52.530;13.390;2023-09-19T10:41:01;5.28;;;2.08;;
19727;SDS011;10015;52.530;13.390;2023-09-19T10:43:29;5.55;;;1.98;;
19727;SDS011;10015;52.530;13.390;2023-09-19T10:46:02;4.90;;;2.10;;
19727;SDS011;10015;52.530;13.390;2023-09-19T10:48:33;6.65;;;2.15;;
19727;SDS011;10015;52.530;13.390;2023-09-19T10:51:03;6.38;;;1.98;;
19727;SDS011;10015;52.530;13.390;2023-09-19T10:56:24;8.30;;;2.20;;
19727;SDS011;10015;52.530;13.390;2023-09-19T10:59:16;5.25;;;2.00;;
19727;SDS011;10015;52.530;13.390;2023-09-19T11:04:24;7.05;;;2.63;;
19727;SDS011;10015;52.530;13.390;2023-09-19T11:07:13;8.32;;;2.00;;
19727;SDS011;10015;52.530;13.390;2023-09-19T11:09:44;6.70;;;1.92;;
19727;SDS011;10015;52.530;13.390;2023-09-19T11:15:05;8.23;;;2.13;;
19727;SDS011;10015;52.530;13.390;2023-09-19T11:17:43;16.77;;;2.45;;
19727;SDS011;10015;52.530;13.390;2023-09-19T11:30:49;5.72;;;1.75;;
19727;SDS011;10015;52.530;13.390;2023-09-19T11:36:12;6.72;;;2.20;;
19727;SDS011;10015;52.530;13.390;2023-09-19T11:43:51;10.20;;;2.15;;
19727;SDS011;10015;52.530;13.390;2023-09-19T11:46:20;7.07;;;1.88;;
19727;SDS011;10015;52.530;13.390;2023-09-19T11:48:47;12.13;;;2.10;;
19727;SDS011;10015;52.530;13.390;2023-09-19T11:51:22;4.97;;;1.85;;
19727;SDS011;10015;52.530;13.390;2023-09-19T11:53:52;7.05;;;2.20;;
19727;SDS011;10015;52.530;13.390;2023-09-19T11:56:25;8.32;;;2.20;;
19727;SDS011;10015;52.530;13.390;2023-09-19T11:58:58;5.57;;;1.90;;
19727;SDS011;10015;52.530;13.390;2023-09-19T12:01:29;7.25;;;1.88;;
19727;SDS011;10015;52.530;13.390;2023-09-19T12:03:57;7.07;;;2.03;;
19727;SDS011;10015;52.530;13.390;2023-09-19T12:06:28;5.63;;;1.60;;
19727;SDS011;10015;52.530;13.390;2023-09-19T12:09:02;7.25;;;2.00;;
19727;SDS011;10015;52.530;13.390;2023-09-19T12:11:32;11.82;;;2.47;;
19727;SDS011;10015;52.530;13.390;2023-09-19T12:14:01;7.03;;;1.80;;
19727;SDS011;10015;52.530;13.390;2023-09-19T12:16:29;3.65;;;1.50;;
19727;SDS011;10015;52.530;13.390;2023-09-19T12:18:59;4.28;;;1.77;;
19727;SDS011;10015;52.530;13.390;2023-09-19T12:22:00;4.40;;;1.42;;
19727;SDS011;10015;52.530;13.390;2023-09-19T12:24:32;5.93;;;1.63;;
19727;SDS011;10015;52.530;13.390;2023-09-19T12:27:01;4.85;;;1.58;;
19727;SDS011;10015;52.530;13.390;2023-09-19T12:29:46;4.97;;;1.83;;
19727;SDS011;10015;52.530;13.390;2023-09-19T12:32:36;4.43;;;1.50;;
19727;SDS011;10015;52.530;13.390;2023-09-19T12:35:08;3.28;;;1.40;;
19727;SDS011;10015;52.530;13.390;2023-09-19T12:37:44;5.00;;;1.60;;
19727;SDS011;10015;52.530;13.390;2023-09-19T12:40:18;7.15;;;1.60;;
19727;SDS011;10015;52.530;13.390;2023-09-19T12:42:56;3.20;;;1.10;;
19727;SDS011;10015;52.530;13.390;2023-09-19T12:45:24;5.38;;;1.55;;
19727;SDS011;10015;52.530;13.390;2023-09-19T12:51:05;7.00;;;1.90;;
19727;SDS011;10015;52.530;13.390;2023-09-19T12:53:33;6.38;;;1.60;;
19727;SDS011;10015;52.530;13.390;2023-09-19T12:56:08;4.80;;;1.30;;
19727;SDS011;10015;52.530;13.390;2023-09-19T12:58:47;2.67;;;1.17;;
19727;SDS011;10015;52.530;13.390;2023-09-19T13:01:29;3.33;;;1.20;;
19727;SDS011;10015;52.530;13.390;2023-09-19T13:06:54;5.00;;;1.60;;
19727;SDS011;10015;52.530;13.390;2023-09-19T13:09:21;6.30;;;1.50;;
19727;SDS011;10015;52.530;13.390;2023-09-19T13:11:55;7.22;;;1.45;;
19727;SDS011;10015;52.530;13.390;2023-09-19T13:14:23;3.65;;;1.42;;
19727;SDS011;10015;52.530;13.390;2023-09-19T13:16:56;2.45;;;1.27;;
19727;SDS011;10015;52.530;13.390;2023-09-19T13:19:39;4.18;;;1.60;;
19727;SDS011;10015;52.530;13.390;2023-09-19T13:25:12;3.88;;;1.65;;
19727;SDS011;10015;52.530;13.390;2023-09-19T13:27:41;3.88;;;1.38;;
19727;SDS011;10015;52.530;13.390;2023-09-19T13:30:10;6.30;;;1.98;;
19727;SDS011;10015;52.530;13.390;2023-09-19T13:32:37;5.75;;;1.67;;
19727;SDS011;10015;52.530;13.390;2023-09-19T13:35:04;2.92;;;1.58;;
19727;SDS011;10015;52.530;13.390;2023-09-19T13:37:32;4.75;;;1.40;;
19727;SDS011;10015;52.530;13.390;2023-09-19T13:40:00;2.00;;;1.13;;
19727;SDS011;10015;52.530;13.390;2023-09-19T13:42:26;2.67;;;1.10;;
19727;SDS011;10015;52.530;13.390;2023-09-19T13:44:55;3.17;;;1.65;;
19727;SDS011;10015;52.530;13.390;2023-09-19T13:47:21;4.05;;;1.52;;
19727;SDS011;10015;52.530;13.390;2023-09-19T13:49:50;2.53;;;1.20;;
19727;SDS011;10015;52.530;13.390;2023-09-19T13:52:18;4.95;;;1.73;;
19727;SDS011;10015;52.530;13.390;2023-09-19T13:54:47;3.47;;;1.30;;
19727;SDS011;10015;52.530;13.390;2023-09-19T13:57:14;5.93;;;1.50;;
19727;SDS011;10015;52.530;13.390;2023-09-19T13:59:42;4.78;;;1.52;;
19727;SDS011;10015;52.530;13.390;2023-09-19T14:02:08;3.90;;;1.48;;
19727;SDS011;10015;52.530;13.390;2023-09-19T14:04:33;5.30;;;1.48;;
19727;SDS011;10015;52.530;13.390;2023-09-19T14:07:02;6.53;;;1.45;;
19727;SDS011;10015;52.530;13.390;2023-09-19T14:09:28;5.43;;;1.50;;
19727;SDS011;10015;52.530;13.390;2023-09-19T14:11:55;3.92;;;1.50;;
19727;SDS011;10015;52.530;13.390;2023-09-19T14:14:22;2.60;;;1.30;;
19727;SDS011;10015;52.530;13.390;2023-09-19T14:16:49;4.95;;;1.58;;
19727;SDS011;10015;52.530;13.390;2023-09-19T14:19:17;4.32;;;1.42;;
19727;SDS011;10015;52.530;13.390;2023-09-19T14:21:44;3.85;;;1.65;;
19727;SDS011;10015;52.530;13.390;2023-09-19T14:24:10;3.67;;;1.35;;
19727;SDS011;10015;52.530;13.390;2023-09-19T14:26:37;3.60;;;1.42;;
19727;SDS011;10015;52.530;13.390;2023-09-19T14:29:03;3.95;;;1.63;;
19727;SDS011;10015;52.530;13.390;2023-09-19T14:31:33;5.28;;;1.40;;
19727;SDS011;10015;52.530;13.390;2023-09-19T14:34:02;3.78;;;1.35;;
19727;SDS011;10015;52.530;13.390;2023-09-19T14:36:30;2.85;;;1.40;;
19727;SDS011;10015;52.530;13.390;2023-09-19T14:38:57;8.05;;;1.60;;
19727;SDS011;10015;52.530;13.390;2023-09-19T14:41:23;2.42;;;1.33;;
19727;SDS011;10015;52.530;13.390;2023-09-19T14:43:51;4.60;;;1.77;;
19727;SDS011;10015;52.530;13.390;2023-09-19T14:46:17;3.55;;;1.27;;
19727;SDS011;10015;52.530;13.390;2023-09-19T14:48:44;3.22;;;1.33;;
19727;SDS011;10015;52.530;13.390;2023-09-19T14:51:14;5.90;;;1.52;;
19727;SDS011;10015;52.530;13.390;2023-09-19T14:53:41;4.15;;;1.50;;
19727;SDS011;10015;52.530;13.390;2023-09-19T14:56:08;4.50;;;1.75;;
19727;SDS011;10015;52.530;13.390;2023-09-19T14:58:34;5.57;;;1.83;;
19727;SDS011;10015;52.530;13.390;2023-09-19T15:01:05;3.78;;;1.70;;
19727;SDS011;10015;52.530;13.390;2023-09-19T15:03:33;4.35;;;1.67;;
19727;SDS011;10015;52.530;13.390;2023-09-19T15:06:02;3.55;;;1.58;;
19727;SDS011;10015;52.530;13.390;2023-09-19T15:08:30;4.82;;;2.05;;
19727;SDS011;10015;52.530;13.390;2023-09-19T15:10:57;5.00;;;1.80;;
19727;SDS011;10015;52.530;13.390;2023-09-19T15:13:27;4.80;;;2.85;;
19727;SDS011;10015;52.530;13.390;2023-09-19T15:18:30;5.25;;;1.65;;
19727;SDS011;10015;52.530;13.390;2023-09-19T15:21:02;4.25;;;1.70;;
19727;SDS011;10015;52.530;13.390;2023-09-19T15:23:38;3.78;;;1.60;;
19727;SDS011;10015;52.530;13.390;2023-09-19T15:26:06;6.40;;;2.05;;
19727;SDS011;10015;52.530;13.390;2023-09-19T15:28:33;3.08;;;1.48;;
19727;SDS011;10015;52.530;13.390;2023-09-19T15:31:04;4.70;;;1.40;;
19727;SDS011;10015;52.530;13.390;2023-09-19T15:33:32;4.53;;;1.77;;
19727;SDS011;10015;52.530;13.390;2023-09-19T15:38:29;5.28;;;1.92;;
19727;SDS011;10015;52.530;13.390;2023-09-19T15:41:00;5.03;;;1.73;;
19727;SDS011;10015;52.530;13.390;2023-09-19T15:43:27;5.40;;;2.05;;
19727;SDS011;10015;52.530;13.390;2023-09-19T15:45:56;5.30;;;1.92;;
19727;SDS011;10015;52.530;13.390;2023-09-19T15:48:22;5.28;;;1.60;;
19727;SDS011;10015;52.530;13.390;2023-09-19T15:50:48;4.50;;;1.52;;
19727;SDS011;10015;52.530;13.390;2023-09-19T15:53:15;4.93;;;1.85;;
19727;SDS011;10015;52.530;13.390;2023-09-19T15:55:42;7.53;;;1.90;;
19727;SDS011;10015;52.530;13.390;2023-09-19T15:58:08;5.00;;;1.65;;
19727;SDS011;10015;52.530;13.390;2023-09-19T16:00:35;3.55;;;1.70;;
19727;SDS011;10015;52.530;13.390;2023-09-19T16:03:06;4.20;;;1.90;;
19727;SDS011;10015;52.530;13.390;2023-09-19T16:05:35;5.78;;;1.75;;
19727;SDS011;10015;52.530;13.390;2023-09-19T16:08:03;4.15;;;1.80;;
19727;SDS011;10015;52.530;13.390;2023-09-19T16:10:33;4.25;;;1.63;;